Time;durP1;ratioP1;P1;durP2;ratioP2;P2;SDS_P1;SDS_P2;PMS_P1;PMS_P2;Temp;Humidity;BMP_temperature;BMP_pressure;BME280_temperature;BME280_humidity;BME280_pressure;Samples;Min_cycle;Max_cycle;Signal;HPM_P1;HPM_P2
2021/12/15 00:00:01;;;;;;;23.98;12.93;;;;;;;8.03;100.00;101880.34;5225395;28;20036;-81
2021/12/15 00:02:31;;;;;;;22.48;13.57;;;;;;;8.03;100.00;101880.34;5222967;28;20036;-80
2021/12/15 00:05:05;;;;;;;22.17;12.57;;;;;;;8.06;100.00;101880.31;5222504;28;20540;-80
2021/12/15 00:07:36;;;;;;;21.92;12.55;;;;;;;8.06;100.00;101872.50;5224397;28;20071;-80
2021/12/15 00:10:07;;;;;;;21.73;12.75;;;;;;;8.05;100.00;101874.22;5220619;28;20017;-82
2021/12/15 00:12:37;;;;;;;22.58;13.25;;;;;;;8.02;100.00;101876.00;5217816;28;20024;-79
2021/12/15 00:15:08;;;;;;;22.08;13.23;;;;;;;8.01;100.00;101872.53;5214346;28;20021;-80
2021/12/15 00:17:39;;;;;;;23.05;12.93;;;;;;;8.01;100.00;101877.72;5218471;28;20079;-79
2021/12/15 00:20:14;;;;;;;21.38;14.18;;;;;;;7.98;100.00;101872.53;5219293;28;20040;-82
2021/12/15 00:22:51;;;;;;;22.20;13.15;;;;;;;8.01;100.00;101879.47;5221493;28;20059;-80
2021/12/15 00:25:24;;;;;;;22.77;14.05;;;;;;;8.03;100.00;101875.97;5222477;28;20029;-81
2021/12/15 00:27:56;;;;;;;23.73;13.50;;;;;;;8.02;100.00;101881.22;5214364;28;20025;-80
2021/12/15 00:30:27;;;;;;;22.98;13.25;;;;;;;8.05;100.00;101882.03;5219511;28;20052;-78
2021/12/15 00:32:57;;;;;;;17.65;10.75;;;;;;;8.10;100.00;101882.03;5220107;28;20100;-80
2021/12/15 00:35:28;;;;;;;18.15;10.95;;;;;;;8.15;100.00;101864.63;5219544;28;20432;-79
2021/12/15 00:37:58;;;;;;;14.82;8.95;;;;;;;8.23;100.00;101870.72;5223830;28;20479;-80
2021/12/15 00:40:29;;;;;;;14.77;9.30;;;;;;;8.17;100.00;101868.09;5222632;28;20596;-82
2021/12/15 00:43:01;;;;;;;15.88;8.65;;;;;;;8.34;100.00;101872.38;5223326;28;20517;-82
2021/12/15 00:45:31;;;;;;;12.88;7.82;;;;;;;8.35;100.00;101878.47;5223651;28;20032;-80
2021/12/15 00:48:02;;;;;;;12.38;7.65;;;;;;;8.36;100.00;101868.03;5220157;28;20021;-80
2021/12/15 00:50:35;;;;;;;12.70;7.85;;;;;;;8.29;100.00;101868.94;5221759;28;20029;-79
2021/12/15 00:53:06;;;;;;;11.98;7.22;;;;;;;8.30;100.00;101875.88;5220988;28;20272;-79
2021/12/15 00:55:37;;;;;;;12.27;7.50;;;;;;;8.34;100.00;101880.19;5225843;28;20024;-80
2021/12/15 00:58:08;;;;;;;13.13;6.97;;;;;;;8.35;100.00;101879.31;5226251;28;20021;-82
2021/12/15 01:00:45;;;;;;;12.77;7.13;;;;;;;8.36;100.00;101878.44;5226569;28;20492;-80
2021/12/15 01:03:16;;;;;;;12.15;7.13;;;;;;;8.36;100.00;101886.25;5224003;28;20433;-80
2021/12/15 01:05:51;;;;;;;11.93;7.80;;;;;;;8.36;100.00;101885.41;5225358;28;20429;-81
2021/12/15 01:08:26;;;;;;;11.85;7.07;;;;;;;8.39;100.00;101880.19;5226260;28;20017;-80
2021/12/15 01:11:21;;;;;;;13.23;6.57;;;;;;;8.46;100.00;101880.13;5226037;28;20032;-80
2021/12/15 01:19:54;;;;;;;11.57;6.75;;;;;;;8.35;100.00;101887.13;5219194;28;20051;-80
2021/12/15 01:22:35;;;;;;;11.27;7.03;;;;;;;8.30;100.00;101888.91;5224978;28;20025;-80
2021/12/15 01:25:09;;;;;;;9.70;6.22;;;;;;;8.40;100.00;101885.34;5223251;28;20275;-80
2021/12/15 01:27:40;;;;;;;11.60;7.32;;;;;;;8.34;100.00;101887.13;5241687;28;20668;-80
2021/12/15 01:30:14;;;;;;;10.93;7.22;;;;;;;8.31;100.00;101893.25;5216658;28;20120;-80
2021/12/15 01:32:44;;;;;;;12.32;7.53;;;;;;;8.30;100.00;101894.13;5224901;28;20086;-81
2021/12/15 01:35:17;;;;;;;12.35;7.03;;;;;;;8.31;100.00;101885.44;5226919;28;20025;-80
2021/12/15 01:37:48;;;;;;;10.27;6.75;;;;;;;8.38;100.00;101888.88;5225567;28;20123;-80
2021/12/15 01:40:35;;;;;;;11.98;7.20;;;;;;;8.34;100.00;101888.00;5228174;28;20043;-81
2021/12/15 01:43:16;;;;;;;12.18;7.57;;;;;;;8.42;100.00;101882.75;5222126;28;20028;-80
2021/12/15 01:48:40;;;;;;;11.65;7.70;;;;;;;8.39;100.00;101888.84;5224964;28;20036;-81
2021/12/15 01:51:12;;;;;;;11.02;7.50;;;;;;;8.36;100.00;101888.03;5226264;28;20718;-80
2021/12/15 01:53:42;;;;;;;12.00;7.10;;;;;;;8.31;100.00;101888.03;5227428;28;20029;-81
2021/12/15 01:56:13;;;;;;;11.77;7.03;;;;;;;8.37;100.00;101887.13;5220963;28;20089;-80
2021/12/15 01:58:43;;;;;;;13.85;7.65;;;;;;;8.38;100.00;101883.66;5208887;28;20495;-81
2021/12/15 02:01:14;;;;;;;12.55;7.57;;;;;;;8.37;100.00;101893.19;5226478;28;20031;-82
2021/12/15 02:03:44;;;;;;;11.50;7.35;;;;;;;8.34;100.00;101894.94;5225578;28;20028;-80
2021/12/15 02:06:15;;;;;;;10.45;6.68;;;;;;;8.33;100.00;101896.69;5225032;28;20025;-81
2021/12/15 02:08:47;;;;;;;11.93;7.57;;;;;;;8.38;100.00;101902.75;5227655;28;20032;-82
2021/12/15 02:11:17;;;;;;;11.77;7.47;;;;;;;8.33;100.00;101899.31;5225743;28;20025;-79
2021/12/15 02:13:48;;;;;;;12.95;7.78;;;;;;;8.33;100.00;101901.91;5219594;28;20108;-82
2021/12/15 02:16:18;;;;;;;13.43;7.68;;;;;;;8.38;100.00;101899.28;5208861;28;20512;-80
2021/12/15 02:18:49;;;;;;;12.00;7.32;;;;;;;8.35;100.00;101894.94;5226283;28;20055;-79
2021/12/15 02:21:22;;;;;;;11.65;7.72;;;;;;;8.34;100.00;101892.34;5225414;28;20135;-80
2021/12/15 02:23:56;;;;;;;11.68;7.10;;;;;;;8.40;100.00;101889.72;5226897;28;20100;-80
2021/12/15 02:26:36;;;;;;;11.95;7.43;;;;;;;8.31;100.00;101900.19;5225551;28;20021;-81
2021/12/15 02:29:14;;;;;;;11.30;7.05;;;;;;;8.31;100.00;101900.19;5226109;28;20021;-80
2021/12/15 02:37:18;;;;;;;13.63;7.07;;;;;;;8.26;100.00;101892.41;5224094;28;20044;-79
2021/12/15 02:39:48;;;;;;;12.25;7.07;;;;;;;8.25;100.00;101905.44;5225959;28;20414;-80
2021/12/15 02:42:21;;;;;;;13.93;7.68;;;;;;;8.29;100.00;101905.41;5223743;28;20077;-80
2021/12/15 02:44:52;;;;;;;11.95;7.38;;;;;;;8.27;100.00;101911.50;5221080;28;20033;-80
2021/12/15 02:47:25;;;;;;;12.77;6.93;;;;;;;8.25;100.00;101908.88;5204445;28;20021;-81
2021/12/15 02:49:58;;;;;;;12.52;7.20;;;;;;;8.32;100.00;101913.19;5221582;28;20017;-80
2021/12/15 02:52:28;;;;;;;11.52;7.70;;;;;;;8.27;100.00;101906.28;5225601;28;20021;-80
2021/12/15 02:54:59;;;;;;;12.32;7.78;;;;;;;8.32;100.00;101907.13;5216721;28;20100;-81
2021/12/15 02:57:29;;;;;;;11.50;7.38;;;;;;;8.29;100.00;101904.53;5222784;28;20121;-80
2021/12/15 03:00:17;;;;;;;11.20;7.05;;;;;;;8.32;100.00;101901.91;5225861;28;20867;-81
2021/12/15 03:05:31;;;;;;;12.02;7.40;;;;;;;8.36;100.00;101914.91;5221087;28;20037;-82
2021/12/15 03:16:20;;;;;;;12.15;7.60;;;;;;;8.38;100.00;101910.56;5218847;28;20156;-83
2021/12/15 03:18:50;;;;;;;12.10;7.80;;;;;;;8.35;100.00;101905.38;5216394;28;20447;-81
2021/12/15 03:21:25;;;;;;;12.55;7.65;;;;;;;8.40;100.00;101906.19;5225414;28;20548;-81
2021/12/15 03:24:01;;;;;;;13.43;7.60;;;;;;;8.40;100.00;101906.19;5224927;28;20024;-81
2021/12/15 03:26:42;;;;;;;14.02;7.85;;;;;;;8.38;100.00;101905.34;5225341;28;20090;-81
2021/12/15 03:37:34;;;;;;;15.13;9.18;;;;;;;8.31;100.00;101903.66;5224840;28;20033;-80
2021/12/15 03:40:09;;;;;;;;;;;;;;;8.32;100.00;101907.13;5225505;28;20031;-81
2021/12/15 03:42:42;;;;;;;17.67;9.88;;;;;;;8.36;100.00;101901.88;5224661;28;20395;-80
2021/12/15 03:45:18;;;;;;;14.40;8.95;;;;;;;8.32;100.00;101902.78;5224335;28;20575;-80
2021/12/15 03:47:50;;;;;;;14.55;9.25;;;;;;;8.35;100.00;101909.72;5216870;28;20071;-81
2021/12/15 03:50:23;;;;;;;16.42;9.70;;;;;;;8.33;100.00;101901.03;5222327;28;20124;-80
2021/12/15 03:52:53;;;;;;;19.00;9.68;;;;;;;8.27;100.00;101904.56;5222666;28;20040;-81
2021/12/15 03:55:28;;;;;;;16.83;10.40;;;;;;;8.32;100.00;101907.13;5223268;28;20644;-80
2021/12/15 03:58:01;;;;;;;15.15;9.52;;;;;;;8.27;100.00;101906.28;5224294;28;20021;-79
2021/12/15 04:00:31;;;;;;;16.30;9.52;;;;;;;8.25;100.00;101898.47;5224792;28;20033;-80
2021/12/15 04:03:02;;;;;;;17.42;10.13;;;;;;;8.23;100.00;101905.41;5223686;28;20031;-81
2021/12/15 04:05:32;;;;;;;16.23;9.50;;;;;;;8.27;100.00;101896.75;5223732;28;20025;-81
2021/12/15 04:08:02;;;;;;;18.27;9.63;;;;;;;8.28;100.00;101905.41;5223636;28;20533;-80
2021/12/15 04:10:33;;;;;;;16.92;9.65;;;;;;;8.26;100.00;101900.22;5223356;28;20024;-80
2021/12/15 04:13:04;;;;;;;15.88;9.80;;;;;;;8.29;100.00;101907.13;5211839;28;20049;-80
2021/12/15 04:15:43;;;;;;;17.17;10.05;;;;;;;8.32;100.00;101899.31;5222553;28;20025;-80
2021/12/15 04:18:14;;;;;;;19.60;10.48;;;;;;;8.34;100.00;101903.63;5223969;28;20033;-81
2021/12/15 04:20:45;;;;;;;16.13;9.95;;;;;;;8.31;100.00;101897.56;5223779;28;20395;-80
2021/12/15 04:23:20;;;;;;;19.63;10.75;;;;;;;8.41;100.00;101905.31;5224572;28;20119;-80
2021/12/15 04:26:00;;;;;;;18.33;10.65;;;;;;;8.34;100.00;101910.56;5211344;28;20034;-80
2021/12/15 04:28:34;;;;;;;16.45;9.27;;;;;;;8.45;100.00;101909.66;5203535;28;20033;-80
2021/12/15 04:31:09;;;;;;;18.48;10.55;;;;;;;8.37;100.00;101913.19;5222035;28;20087;-80
2021/12/15 04:34:02;;;;;;;16.87;10.20;;;;;;;8.41;100.00;101915.75;5224504;28;20017;-80
2021/12/15 04:36:42;;;;;;;18.88;10.30;;;;;;;8.40;100.00;101916.63;5218230;28;20051;-82
2021/12/15 04:39:17;;;;;;;16.15;10.05;;;;;;;8.33;100.00;101914.94;5224283;28;20116;-81
2021/12/15 04:41:50;;;;;;;18.98;10.13;;;;;;;8.35;100.00;101921.00;5224399;28;20025;-80
2021/12/15 04:44:28;;;;;;;17.40;10.10;;;;;;;8.35;100.00;101918.38;5223518;28;20027;-81
2021/12/15 04:47:10;;;;;;;15.60;9.60;;;;;;;8.31;100.00;101928.81;5224053;28;20506;-80
2021/12/15 04:49:51;;;;;;;17.02;9.18;;;;;;;8.37;100.00;101923.59;5223613;28;20399;-81
2021/12/15 04:52:25;;;;;;;14.73;9.30;;;;;;;8.34;100.00;101923.59;5223065;28;20039;-81
2021/12/15 04:54:58;;;;;;;14.82;9.25;;;;;;;8.43;100.00;101916.63;5214007;28;20039;-80
2021/12/15 04:57:29;;;;;;;15.45;9.88;;;;;;;8.32;100.00;101926.22;5217478;28;20065;-81
2021/12/15 04:59:59;;;;;;;15.85;9.73;;;;;;;8.32;100.00;101928.84;5223302;28;20091;-80
2021/12/15 05:02:30;;;;;;;16.27;9.45;;;;;;;8.32;100.00;101931.44;5224104;28;20036;-81
2021/12/15 05:05:00;;;;;;;13.23;9.02;;;;;;;8.33;100.00;101935.78;5224085;28;20040;-82
2021/12/15 05:07:31;;;;;;;14.30;8.82;;;;;;;8.32;100.00;101936.66;5223429;28;20063;-80
2021/12/15 05:10:05;;;;;;;13.68;8.60;;;;;;;8.37;100.00;101936.63;5222925;28;20029;-80
2021/12/15 05:12:36;;;;;;;15.20;8.65;;;;;;;8.38;100.00;101931.41;5224035;28;20108;-80
2021/12/15 05:15:07;;;;;;;15.23;8.63;;;;;;;8.44;100.00;101936.59;5224195;28;20395;-81
2021/12/15 05:17:38;;;;;;;15.00;9.60;;;;;;;8.37;100.00;101940.09;5222322;28;20041;-80
2021/12/15 05:20:09;;;;;;;15.55;9.43;;;;;;;8.39;100.00;101937.50;5222330;28;20557;-82
2021/12/15 05:22:40;;;;;;;15.30;9.32;;;;;;;8.36;100.00;101953.97;5223809;28;20033;-80
2021/12/15 05:25:11;;;;;;;13.95;8.98;;;;;;;8.37;100.00;101947.91;5211664;28;20100;-80
2021/12/15 05:27:42;;;;;;;17.95;9.70;;;;;;;8.44;100.00;101940.91;5213982;28;20056;-82
2021/12/15 05:30:15;;;;;;;16.90;10.23;;;;;;;8.44;100.00;101940.91;5215963;28;20514;-81
2021/12/15 05:32:47;;;;;;;15.70;9.57;;;;;;;8.41;100.00;101944.41;5221366;28;20082;-80
2021/12/15 05:35:22;;;;;;;17.20;9.55;;;;;;;8.51;100.00;101951.31;5205579;28;20510;-80
2021/12/15 05:37:57;;;;;;;15.65;9.40;;;;;;;8.52;100.00;101954.78;5219724;28;20410;-82
2021/12/15 05:40:28;;;;;;;16.52;10.23;;;;;;;8.57;100.00;101956.47;5223177;28;20398;-80
2021/12/15 05:43:00;;;;;;;16.55;10.18;;;;;;;8.52;100.00;101960.84;5227233;28;20418;-82
2021/12/15 05:45:33;;;;;;;15.95;10.18;;;;;;;8.56;100.00;101952.13;5225555;28;20033;-80
2021/12/15 05:48:11;;;;;;;17.88;10.15;;;;;;;8.59;100.00;101957.31;5223566;28;20174;-81
2021/12/15 05:50:43;;;;;;;15.88;9.57;;;;;;;8.61;100.00;101960.81;5225352;28;20029;-81
2021/12/15 05:53:14;;;;;;;13.45;8.63;;;;;;;8.70;100.00;101955.53;5226924;28;20029;-80
2021/12/15 05:55:44;;;;;;;12.02;7.35;;;;;;;8.67;100.00;101957.28;5227343;28;20021;-81
2021/12/15 05:58:15;;;;;;;12.50;7.20;;;;;;;8.68;100.00;101957.28;5227543;28;20033;-81
2021/12/15 06:00:47;;;;;;;9.82;6.20;;;;;;;8.71;100.00;101964.25;5227182;28;20479;-79
2021/12/15 06:03:18;;;;;;;10.82;6.63;;;;;;;8.69;100.00;101963.38;5223670;28;20029;-81
2021/12/15 06:05:48;;;;;;;11.63;7.03;;;;;;;8.71;100.00;101966.84;5226597;28;20586;-80
2021/12/15 06:08:19;;;;;;;13.00;7.60;;;;;;;8.80;100.00;101967.66;5226128;28;20111;-82
2021/12/15 06:10:49;;;;;;;11.13;6.93;;;;;;;8.70;100.00;101968.56;5226480;28;20025;-81
2021/12/15 06:13:23;;;;;;;12.57;7.70;;;;;;;8.66;100.00;101979.00;5226203;28;20025;-82
2021/12/15 06:15:55;;;;;;;11.48;7.82;;;;;;;8.66;100.00;101979.00;5226648;28;20064;-80
2021/12/15 06:18:26;;;;;;;13.50;8.15;;;;;;;8.62;100.00;101974.69;5236990;22;20033;-81
2021/12/15 06:20:57;;;;;;;13.73;8.23;;;;;;;8.69;100.00;101974.66;5233668;28;20390;-80
2021/12/15 06:23:28;;;;;;;12.60;7.07;;;;;;;8.72;100.00;101979.84;5247121;28;20020;-80
2021/12/15 06:26:01;;;;;;;13.57;7.07;;;;;;;8.74;100.00;101980.69;5236792;28;20523;-82
2021/12/15 06:28:33;;;;;;;10.85;6.95;;;;;;;8.76;100.00;101984.16;5235695;28;20116;-81
2021/12/15 06:31:07;;;;;;;13.70;6.90;;;;;;;8.91;100.00;101984.06;5228720;28;20100;-81
2021/12/15 06:33:39;;;;;;;10.70;7.05;;;;;;;8.76;100.00;101984.16;5234210;28;20028;-81
2021/12/15 06:36:13;;;;;;;11.02;6.80;;;;;;;8.74;100.00;101988.53;5244294;28;20021;-80
2021/12/15 06:38:48;;;;;;;10.85;7.43;;;;;;;8.72;100.00;101989.44;5244468;28;20028;-81
2021/12/15 06:41:20;;;;;;;12.88;7.35;;;;;;;8.67;100.00;101988.56;5244996;28;20107;-80
2021/12/15 06:43:55;;;;;;;10.45;7.20;;;;;;;8.66;100.00;101984.22;5243567;28;20033;-80
2021/12/15 07:00:11;;;;;;;13.80;7.72;;;;;;;8.61;100.00;101991.22;5246266;28;20035;-82
2021/12/15 07:02:41;;;;;;;12.27;7.72;;;;;;;8.62;100.00;101999.03;5245790;28;20115;-80
2021/12/15 07:05:13;;;;;;;12.05;7.10;;;;;;;8.63;100.00;101990.34;5245399;28;20115;-81
2021/12/15 07:07:46;;;;;;;10.85;7.07;;;;;;;8.67;100.00;101996.38;5245034;28;20066;-82
2021/12/15 07:10:21;;;;;;;11.75;6.93;;;;;;;8.60;100.00;101995.56;5245692;28;20020;-82
2021/12/15 07:12:53;;;;;;;12.00;7.47;;;;;;;8.62;100.00;101999.03;5243030;28;20504;-80
2021/12/15 07:15:24;;;;;;;10.80;6.85;;;;;;;8.68;100.00;102003.31;5246334;28;20051;-81
2021/12/15 07:18:02;;;;;;;12.48;7.45;;;;;;;8.61;100.00;102002.50;5234528;28;20025;-80
2021/12/15 07:20:40;;;;;;;11.75;7.75;;;;;;;8.58;100.00;102005.09;5220430;28;20479;-82
2021/12/15 07:23:16;;;;;;;12.40;7.88;;;;;;;8.56;100.00;102008.63;5246216;28;20566;-82
2021/12/15 07:25:49;;;;;;;14.07;8.55;;;;;;;8.74;100.00;102006.75;5245944;28;20048;-81
2021/12/15 07:28:23;;;;;;;14.40;8.88;;;;;;;8.66;100.00;102008.56;5245794;28;20076;-80
2021/12/15 07:30:54;;;;;;;16.35;9.40;;;;;;;8.65;100.00;102013.75;5245982;28;20020;-81
2021/12/15 07:33:25;;;;;;;18.42;9.90;;;;;;;8.68;100.00;102014.63;5246020;28;20025;-81
2021/12/15 07:35:56;;;;;;;18.65;9.68;;;;;;;8.63;100.00;102016.41;5245759;28;20044;-80
2021/12/15 07:38:27;;;;;;;17.95;10.38;;;;;;;8.65;100.00;102025.06;5244545;28;20742;-82
2021/12/15 07:40:58;;;;;;;17.48;10.15;;;;;;;8.58;100.00;102027.72;5245992;28;20032;-81
2021/12/15 07:43:29;;;;;;;19.98;11.43;;;;;;;8.60;100.00;102026.84;5245034;28;20028;-81
2021/12/15 07:46:02;;;;;;;21.58;11.48;;;;;;;8.55;100.00;102039.00;5236608;28;20037;-80
2021/12/15 07:48:35;;;;;;;24.00;12.07;;;;;;;8.56;100.00;102030.31;5229499;28;20680;-81
2021/12/15 07:51:07;;;;;;;22.88;13.02;;;;;;;8.67;100.00;102028.53;5228447;28;20032;-81
2021/12/15 07:53:39;;;;;;;23.10;12.45;;;;;;;8.62;100.00;102030.31;5230103;28;20051;-80
2021/12/15 07:56:11;;;;;;;21.35;12.63;;;;;;;8.73;100.00;102035.47;5224782;28;20021;-81
2021/12/15 07:58:42;;;;;;;23.08;13.18;;;;;;;8.71;100.00;102029.41;5229376;28;20029;-83
2021/12/15 08:01:12;;;;;;;21.00;11.85;;;;;;;8.72;100.00;102031.13;5239392;28;20052;-80
2021/12/15 08:03:43;;;;;;;19.92;11.95;;;;;;;8.72;100.00;102031.13;5240662;28;20670;-80
2021/12/15 08:06:13;;;;;;;21.45;12.43;;;;;;;8.67;100.00;102028.53;5234921;28;20043;-81
2021/12/15 08:08:44;;;;;;;20.20;11.18;;;;;;;8.76;100.00;102032.84;5224673;28;20039;-80
2021/12/15 08:11:14;;;;;;;27.20;13.02;;;;;;;8.67;100.00;102038.97;5230773;28;20029;-82
2021/12/15 08:13:45;;;;;;;23.25;12.70;;;;;;;8.67;100.00;102038.97;5243021;28;20404;-80
2021/12/15 08:16:19;;;;;;;23.20;13.05;;;;;;;8.71;100.00;102035.47;5242526;28;20055;-82
2021/12/15 08:18:49;;;;;;;22.25;12.60;;;;;;;8.75;100.00;102039.78;5224037;28;20029;-80
2021/12/15 08:21:20;;;;;;;26.35;13.32;;;;;;;8.73;100.00;102036.31;5225886;28;20036;-80
2021/12/15 08:23:50;;;;;;;23.33;13.05;;;;;;;8.72;100.00;102033.72;5238361;28;20020;-83
2021/12/15 08:26:21;;;;;;;26.35;13.88;;;;;;;8.77;100.00;102039.78;5245014;28;20024;-82
2021/12/15 08:28:52;;;;;;;24.17;13.35;;;;;;;8.92;100.00;102035.34;5244931;28;20028;-80
2021/12/15 08:31:22;;;;;;;24.25;13.68;;;;;;;8.84;100.00;102037.13;5227529;28;20146;-80
2021/12/15 08:33:53;;;;;;;27.92;14.75;;;;;;;8.91;100.00;102036.22;5222988;28;20648;-83
2021/12/15 08:36:23;;;;;;;26.80;14.90;;;;;;;8.92;100.00;102040.56;5239956;28;20035;-81
2021/12/15 08:38:54;;;;;;;24.65;14.13;;;;;;;8.86;100.00;102044.97;5242301;28;20030;-80
2021/12/15 08:41:27;;;;;;;27.70;14.20;;;;;;;8.94;100.00;102043.16;5244671;28;20035;-80
2021/12/15 08:43:58;;;;;;;27.83;15.18;;;;;;;9.07;100.00;102047.44;5244166;28;20028;-81
2021/12/15 08:46:32;;;;;;;24.58;13.35;;;;;;;9.01;100.00;102050.94;5242988;28;20040;-79
2021/12/15 08:49:02;;;;;;;23.40;13.18;;;;;;;8.97;100.00;102054.47;5231183;28;20490;-80
2021/12/15 08:51:34;;;;;;;22.17;13.05;;;;;;;9.10;100.00;102056.09;5223528;28;20078;-82
2021/12/15 08:54:08;;;;;;;24.23;13.55;;;;;;;9.10;100.00;102061.31;5239157;28;20028;-79
2021/12/15 08:56:38;;;;;;;23.80;13.65;;;;;;;9.08;100.00;102057.00;5243980;28;20441;-80
2021/12/15 08:59:10;;;;;;;24.73;13.88;;;;;;;9.14;100.00;102060.44;5243233;28;20029;-80
2021/12/15 09:01:41;;;;;;;26.58;14.55;;;;;;;9.09;100.00;102064.78;5224748;28;20033;-80
2021/12/15 09:04:14;;;;;;;26.23;15.57;;;;;;;9.14;100.00;102057.84;5229983;28;20086;-81
2021/12/15 09:06:45;;;;;;;26.08;14.95;;;;;;;9.11;100.00;102063.06;5243239;28;20043;-79
2021/12/15 09:09:20;;;;;;;26.50;13.55;;;;;;;9.20;100.00;102061.28;5244356;28;20090;-82
2021/12/15 09:11:53;;;;;;;21.45;12.73;;;;;;;9.16;100.00;102056.06;5242723;28;20478;-81
2021/12/15 09:14:24;;;;;;;22.40;13.07;;;;;;;9.18;100.00;102054.31;5243485;28;20029;-83
2021/12/15 09:16:57;;;;;;;23.15;12.48;;;;;;;9.17;100.00;102052.59;5243412;28;20482;-80
2021/12/15 09:19:28;;;;;;;21.25;12.13;;;;;;;9.26;100.00;102062.94;5229523;28;20021;-82
2021/12/15 09:21:58;;;;;;;20.63;11.60;;;;;;;9.18;100.00;102062.16;5225515;28;20407;-82
2021/12/15 09:24:29;;;;;;;18.13;11.18;;;;;;;9.17;100.00;102057.81;5247309;28;20028;-81
2021/12/15 09:26:59;;;;;;;18.95;10.98;;;;;;;9.13;100.00;102057.81;5247208;28;20032;-80
2021/12/15 09:29:30;;;;;;;17.75;10.57;;;;;;;9.13;100.00;102053.50;5246898;28;20379;-79
2021/12/15 09:32:00;;;;;;;18.23;11.00;;;;;;;9.05;100.00;102057.88;5226840;28;20025;-82
2021/12/15 09:34:31;;;;;;;16.50;10.65;;;;;;;9.10;100.00;102053.50;5227491;28;20025;-82
2021/12/15 09:37:04;;;;;;;15.55;10.25;;;;;;;9.13;100.00;102055.22;5225900;28;20040;-81
2021/12/15 09:39:36;;;;;;;15.85;9.98;;;;;;;9.10;100.00;102058.69;5230200;28;20020;-81
2021/12/15 09:42:06;;;;;;;13.80;9.18;;;;;;;9.04;100.00;102056.16;5227410;28;20044;-84
2021/12/15 09:44:36;;;;;;;13.93;9.60;;;;;;;9.05;100.00;102052.66;5243479;28;20029;-82
2021/12/15 09:47:15;;;;;;;13.50;9.10;;;;;;;9.03;100.00;102043.97;5245788;28;20486;-80
2021/12/15 10:06:30;;;;;;;13.60;7.78;;;;;;;9.10;100.00;102058.69;5247782;28;20370;-81
2021/12/15 10:12:22;;;;;;;12.73;8.40;;;;;;;9.16;100.00;102050.88;5248269;28;20173;-81
2021/12/15 10:18:15;;;;;;;11.98;7.32;;;;;;;9.17;100.00;102063.03;5232405;28;20687;-80
2021/12/15 10:20:40;;;;;;;11.55;7.47;;;;;;;9.15;100.00;102054.34;5224724;28;20041;-83
2021/12/15 10:23:15;;;;;;;11.05;6.97;;;;;;;9.17;100.00;102047.38;5233036;28;20568;-81
2021/12/15 10:25:49;;;;;;;14.45;8.00;;;;;;;9.18;100.00;102054.31;5225891;28;20025;-80
2021/12/15 10:28:24;;;;;;;11.38;7.88;;;;;;;9.20;100.00;102045.63;5232030;28;20032;-79
2021/12/15 10:31:01;;;;;;;14.55;7.68;;;;;;;9.21;100.00;102049.09;5236413;28;20017;-82
2021/12/15 10:33:38;;;;;;;12.90;8.30;;;;;;;9.25;100.00;102053.41;5230236;28;20099;-79
2021/12/15 10:36:32;;;;;;;14.80;8.07;;;;;;;9.30;100.00;102049.03;5242083;28;20025;-82
2021/12/15 10:39:08;;;;;;;15.60;7.97;;;;;;;9.27;100.00;102055.13;5237751;28;20020;-82
2021/12/15 10:41:44;;;;;;;12.63;7.45;;;;;;;9.33;100.00;102054.22;5224945;28;20025;-81
2021/12/15 10:44:21;;;;;;;16.55;7.80;;;;;;;9.50;100.00;102057.59;5224587;28;20029;-79
2021/12/15 10:46:56;;;;;;;12.43;7.38;;;;;;;9.41;100.00;102052.41;5225631;28;20025;-81
2021/12/15 10:49:33;;;;;;;12.03;7.07;;;;;;;9.46;100.00;102066.31;5225480;28;20047;-78
2021/12/15 10:52:08;;;;;;;13.02;7.70;;;;;;;9.38;100.00;102063.75;5226133;28;20290;-80
2021/12/15 10:54:56;;;;;;;13.30;8.00;;;;;;;9.41;100.00;102060.25;5244926;28;20028;-82
2021/12/15 10:57:34;;;;;;;13.55;8.65;;;;;;;9.48;100.00;102059.34;5248007;28;20016;-80
2021/12/15 11:00:10;;;;;;;13.20;7.55;;;;;;;9.46;100.00;102066.31;5247184;28;20040;-82
2021/12/15 11:02:41;;;;;;;12.77;7.20;;;;;;;9.51;100.00;102061.91;5227903;28;20055;-81
2021/12/15 11:05:18;;;;;;;13.95;7.82;;;;;;;9.38;100.00;102053.31;5241773;28;20033;-80
2021/12/15 11:07:56;;;;;;;13.60;6.97;;;;;;;9.48;100.00;102051.50;5245934;28;20649;-80
2021/12/15 11:10:33;;;;;;;11.23;7.40;;;;;;;9.45;100.00;102048.94;5247377;28;20032;-82
2021/12/15 11:13:06;;;;;;;13.25;7.75;;;;;;;9.53;100.00;102049.72;5246759;28;20059;-80
2021/12/15 11:15:49;;;;;;;11.27;7.18;;;;;;;9.52;100.00;102041.00;5247940;28;20029;-81
2021/12/15 11:18:21;;;;;;;13.20;7.40;;;;;;;9.57;100.00;102040.97;5242271;28;20112;-80
2021/12/15 11:20:52;;;;;;;11.65;7.20;;;;;;;9.59;100.00;102036.63;5229006;28;20029;-81
2021/12/15 11:23:25;;;;;;;10.95;7.15;;;;;;;9.62;100.00;102039.22;5246455;28;20021;-80
2021/12/15 11:26:01;;;;;;;12.98;7.65;;;;;;;9.68;100.00;102040.00;5246829;28;20355;-81
2021/12/15 11:28:35;;;;;;;17.55;10.23;;;;;;;9.63;100.00;102043.56;5246455;28;20039;-81
2021/12/15 11:31:08;;;;;;;11.35;7.03;;;;;;;9.69;100.00;102035.66;5234670;28;20016;-81
2021/12/15 11:33:45;;;;;;;11.43;6.88;;;;;;;9.75;100.00;102035.59;5235571;28;20028;-80
2021/12/15 11:36:22;;;;;;;14.25;7.18;;;;;;;9.80;100.00;102036.44;5247176;28;20025;-82
2021/12/15 11:38:53;;;;;;;12.38;6.82;;;;;;;9.77;100.00;102036.44;5237355;28;20025;-78
2021/12/15 11:41:27;;;;;;;11.50;7.60;;;;;;;9.83;100.00;102039.03;5231251;28;20067;-79
2021/12/15 11:44:04;;;;;;;12.25;7.75;;;;;;;9.71;100.00;102036.53;5245594;28;20126;-81
2021/12/15 11:47:06;;;;;;;16.10;8.90;;;;;;;9.66;100.00;102043.53;5245293;28;20024;-80
2021/12/15 11:49:41;;;;;;;13.88;8.27;;;;;;;9.68;100.00;102041.78;5218508;28;20064;-81
2021/12/15 11:52:14;;;;;;;13.35;7.82;;;;;;;9.70;100.00;102032.19;5243660;28;20028;-81
2021/12/15 11:54:48;;;;;;;14.35;7.72;;;;;;;9.76;100.00;102034.72;5241585;28;20044;-81
2021/12/15 11:57:23;;;;;;;13.95;7.93;;;;;;;9.72;100.00;102035.63;5233396;28;20029;-81
2021/12/15 11:59:57;;;;;;;15.40;8.63;;;;;;;9.75;100.00;102033.00;5245673;28;20020;-80
2021/12/15 12:02:32;;;;;;;14.20;8.48;;;;;;;9.71;100.00;102031.28;5231142;28;20082;-81
2021/12/15 12:05:08;;;;;;;13.47;7.63;;;;;;;9.78;100.00;102033.84;5241178;28;20569;-82
2021/12/15 12:07:42;;;;;;;13.75;8.05;;;;;;;9.73;100.00;102034.75;5244021;28;20047;-80
2021/12/15 12:10:46;;;;;;;15.90;7.60;;;;;;;9.77;100.00;102041.69;5244650;28;20027;-80
2021/12/15 12:13:30;;;;;;;15.25;7.07;;;;;;;9.80;100.00;102042.53;5245202;28;20020;-79
2021/12/15 12:16:07;;;;;;;12.25;6.90;;;;;;;9.85;100.00;102050.31;5246379;28;20026;-80
2021/12/15 12:18:38;;;;;;;12.15;7.53;;;;;;;9.80;100.00;102039.06;5255326;22;20049;-79
2021/12/15 12:21:09;;;;;;;14.45;6.57;;;;;;;9.82;100.00;102042.53;5238001;28;20050;-77
2021/12/15 12:23:44;;;;;;;10.23;6.20;;;;;;;9.80;100.00;102042.53;5238683;28;20052;-78
2021/12/15 12:26:17;;;;;;;13.50;6.68;;;;;;;9.67;100.00;102035.66;5236622;28;20088;-77
2021/12/15 12:28:48;;;;;;;10.85;6.28;;;;;;;9.77;100.00;102041.69;5238013;28;20025;-78
2021/12/15 12:31:21;;;;;;;12.60;6.13;;;;;;;9.70;100.00;102040.00;5237456;28;20150;-79
2021/12/15 12:33:51;;;;;;;9.13;5.80;;;;;;;9.75;100.00;102040.81;5236629;28;20036;-77
2021/12/15 12:36:28;;;;;;;10.63;5.82;;;;;;;9.84;100.00;102044.22;5236943;28;20118;-78
2021/12/15 12:39:10;;;;;;;9.45;6.00;;;;;;;9.74;100.00;102046.94;5245523;28;20504;-79
2021/12/15 12:41:46;;;;;;;10.65;6.00;;;;;;;9.71;100.00;102044.34;5236387;28;20028;-79
2021/12/15 12:44:22;;;;;;;8.57;5.40;;;;;;;9.76;100.00;102043.44;5244907;28;20029;-78
2021/12/15 12:47:01;;;;;;;9.77;5.80;;;;;;;9.71;100.00;102032.19;5242289;28;20520;-78
2021/12/15 13:01:15;;;;;;;7.97;4.75;;;;;;;9.68;100.00;102033.94;5252604;28;20028;-78
2021/12/15 13:03:53;;;;;;;9.35;5.22;;;;;;;9.71;100.00;102032.19;5250682;28;20025;-78